Time;durP1;ratioP1;P1;durP2;ratioP2;P2;SDS_P1;SDS_P2;PMS_P1;PMS_P2;Temp;Humidity;BMP_temperature;BMP_pressure;BME280_temperature;BME280_humidity;BME280_pressure;Samples;Min_cycle;Max_cycle;Signal;HPM_P1;HPM_P2
2023/04/21 00:02:06;;;;;;;7.60;6.10;;;;;;;8.51;67.59;94392.47;5077931;28;20120;-74
2023/04/21 00:04:32;;;;;;;7.53;6.47;;;;;;;8.49;66.89;94395.16;5071915;28;20069;-74
2023/04/21 00:07:00;;;;;;;8.88;6.80;;;;;;;8.28;68.21;94382.16;5081038;28;20508;-74
2023/04/21 00:09:26;;;;;;;8.65;6.82;;;;;;;8.20;68.31;94371.59;5072339;28;20428;-74
2023/04/21 00:11:51;;;;;;;6.95;6.03;;;;;;;8.19;67.20;94387.25;5062704;28;20040;-74
2023/04/21 00:14:18;;;;;;;7.80;6.63;;;;;;;8.12;68.53;94388.69;5083676;28;20524;-74
2023/04/21 00:16:44;;;;;;;9.60;6.40;;;;;;;8.14;68.60;94390.22;5089212;28;20032;-74
2023/04/21 00:19:12;;;;;;;9.38;6.30;;;;;;;8.09;68.85;94389.75;5068892;28;20028;-74
2023/04/21 00:21:38;;;;;;;9.55;6.38;;;;;;;8.14;67.94;94373.88;5072894;28;20028;-74
2023/04/21 00:24:03;;;;;;;7.10;5.82;;;;;;;8.09;67.69;94384.59;5087419;28;20039;-74
2023/04/21 00:26:29;;;;;;;8.90;6.70;;;;;;;8.04;68.53;94382.34;5066076;28;20035;-74
2023/04/21 00:28:54;;;;;;;8.10;6.15;;;;;;;7.97;68.23;94382.97;5064228;28;20483;-74
2023/04/21 00:31:20;;;;;;;8.93;6.55;;;;;;;7.96;68.24;94391.66;5070147;28;20449;-74
2023/04/21 00:33:46;;;;;;;8.05;6.40;;;;;;;7.86;68.17;94395.94;5077195;28;20306;-74
2023/04/21 00:36:11;;;;;;;10.18;7.85;;;;;;;7.73;68.32;94380.56;5091890;28;20077;-73
2023/04/21 00:38:37;;;;;;;10.20;7.75;;;;;;;7.76;68.40;94385.47;5080223;28;20033;-73
2023/04/21 00:41:02;;;;;;;8.00;6.50;;;;;;;7.69;68.51;94389.47;5052660;28;20035;-74
2023/04/21 00:43:28;;;;;;;7.90;6.25;;;;;;;7.61;69.04;94392.69;5064887;28;20039;-74
2023/04/21 00:45:53;;;;;;;7.68;6.07;;;;;;;7.44;69.37;94386.25;5042155;28;20409;-74
2023/04/21 00:48:18;;;;;;;7.82;5.60;;;;;;;7.43;69.30;94389.75;5069393;28;20425;-74
2023/04/21 00:50:44;;;;;;;7.32;5.70;;;;;;;7.30;69.47;94389.88;5052292;28;20040;-74
2023/04/21 00:53:10;;;;;;;9.27;5.68;;;;;;;7.10;69.35;94360.41;5078376;28;20115;-74
2023/04/21 00:55:35;;;;;;;8.98;7.05;;;;;;;7.18;69.69;94382.22;5053829;28;20442;-73
2023/04/21 00:58:02;;;;;;;10.63;6.85;;;;;;;7.07;70.08;94388.22;5043214;28;20028;-73
2023/04/21 01:00:27;;;;;;;11.23;7.57;;;;;;;7.07;69.98;94385.63;5046046;28;20040;-74
2023/04/21 01:02:53;;;;;;;11.63;7.93;;;;;;;7.06;70.31;94379.66;5052600;28;20044;-73
2023/04/21 01:05:18;;;;;;;9.60;7.38;;;;;;;6.92;70.26;94372.94;5072714;28;20502;-73
2023/04/21 01:07:44;;;;;;;10.13;7.22;;;;;;;7.04;70.29;94380.69;5059016;28;20086;-73
2023/04/21 01:10:10;;;;;;;10.40;6.35;;;;;;;6.82;71.68;94373.75;5070847;28;20024;-73
2023/04/21 01:12:43;;;;;;;9.30;6.28;;;;;;;6.76;71.41;94384.53;5061936;28;20452;-73
2023/04/21 01:15:09;;;;;;;9.55;6.32;;;;;;;6.69;71.25;94385.00;5059231;28;20040;-73
2023/04/21 01:17:37;;;;;;;10.38;6.78;;;;;;;6.74;70.86;94379.47;5070908;28;20509;-74
2023/04/21 01:20:07;;;;;;;9.40;6.68;;;;;;;6.71;70.92;94380.56;5068510;28;20454;-73
2023/04/21 01:22:34;;;;;;;8.00;6.50;;;;;;;6.62;71.08;94363.13;5088145;28;20062;-74
2023/04/21 01:25:00;;;;;;;11.05;8.48;;;;;;;6.66;71.63;94377.47;5070461;28;20487;-73
2023/04/21 01:27:25;;;;;;;10.90;8.05;;;;;;;6.61;71.88;94377.00;5052269;28;20043;-74
2023/04/21 01:29:51;;;;;;;10.00;7.55;;;;;;;6.41;72.03;94370.72;5052063;28;20033;-73
2023/04/21 01:32:22;;;;;;;10.15;7.10;;;;;;;6.47;72.22;94369.47;5071598;28;20490;-73
2023/04/21 01:34:48;;;;;;;8.75;6.63;;;;;;;6.60;72.34;94367.63;5072094;28;20479;-73
2023/04/21 01:37:15;;;;;;;8.23;6.65;;;;;;;6.60;72.23;94375.38;5071953;28;20051;-73
2023/04/21 01:39:41;;;;;;;9.90;7.22;;;;;;;6.39;73.21;94366.63;5088972;28;20329;-73
2023/04/21 01:42:07;;;;;;;8.63;6.80;;;;;;;6.46;72.51;94380.69;5081332;28;20036;-73
2023/04/21 01:44:33;;;;;;;8.60;6.65;;;;;;;6.38;71.79;94370.09;5073337;28;20031;-74
2023/04/21 01:46:58;;;;;;;13.05;9.43;;;;;;;6.38;72.15;94365.78;5048940;28;20028;-73
2023/04/21 01:49:23;;;;;;;11.43;8.13;;;;;;;6.38;72.20;94364.94;5089114;28;20036;-73
2023/04/21 01:51:49;;;;;;;12.80;8.05;;;;;;;6.36;72.82;94369.41;5087860;28;20032;-73
2023/04/21 01:54:14;;;;;;;9.07;7.95;;;;;;;6.28;73.53;94369.97;5065447;28;20418;-73
2023/04/21 01:56:40;;;;;;;11.32;7.95;;;;;;;6.19;73.52;94360.34;5068702;28;20025;-73
2023/04/21 01:59:05;;;;;;;13.30;8.30;;;;;;;6.30;73.36;94373.28;5056368;28;20038;-73
2023/04/21 02:01:31;;;;;;;9.13;7.32;;;;;;;6.11;73.59;94348.00;5073665;28;20071;-73
2023/04/21 02:03:56;;;;;;;9.80;6.43;;;;;;;6.12;73.26;94359.13;5075368;28;20032;-73
2023/04/21 02:06:22;;;;;;;10.35;6.47;;;;;;;6.17;73.62;94372.50;5077361;28;20032;-73
2023/04/21 02:08:47;;;;;;;9.18;5.53;;;;;;;6.20;73.46;94372.28;5083153;28;20024;-73
2023/04/21 02:11:12;;;;;;;8.13;5.75;;;;;;;6.19;73.59;94344.84;5078415;28;20036;-73
2023/04/21 02:13:38;;;;;;;6.70;4.95;;;;;;;6.30;73.82;94360.38;5072572;28;20438;-73
2023/04/21 02:16:04;;;;;;;6.30;5.43;;;;;;;6.40;73.47;94363.09;5029832;28;20414;-74
2023/04/21 02:18:29;;;;;;;7.88;6.00;;;;;;;6.30;73.09;94368.13;5070165;28;20387;-75
2023/04/21 02:20:55;;;;;;;7.00;5.38;;;;;;;6.30;73.26;94369.88;5055273;28;20500;-74
2023/04/21 02:23:20;;;;;;;7.57;5.55;;;;;;;6.30;73.37;94367.28;5082564;28;20509;-74
2023/04/21 02:25:46;;;;;;;9.07;5.75;;;;;;;6.14;73.80;94347.75;5046889;28;20024;-73
2023/04/21 02:28:11;;;;;;;6.90;5.55;;;;;;;6.25;73.43;94363.28;5069866;28;20020;-73
2023/04/21 02:30:37;;;;;;;7.57;5.90;;;;;;;6.35;73.75;94365.19;5061835;28;20087;-73
2023/04/21 02:33:02;;;;;;;8.75;6.25;;;;;;;6.35;74.12;94365.19;5071128;28;20455;-73
2023/04/21 02:35:28;;;;;;;8.57;5.75;;;;;;;6.42;73.21;94361.22;5072469;28;20024;-73
2023/04/21 02:37:53;;;;;;;9.13;5.65;;;;;;;6.55;72.96;94361.16;5058101;28;20036;-73
2023/04/21 02:40:20;;;;;;;8.73;6.22;;;;;;;6.36;73.07;94362.50;5053554;28;20024;-73
2023/04/21 02:42:45;;;;;;;9.52;7.32;;;;;;;6.40;73.32;94356.16;5048608;28;20489;-73
2023/04/21 02:45:10;;;;;;;7.15;5.75;;;;;;;6.46;73.73;94373.78;5071497;28;20032;-73
2023/04/21 02:47:36;;;;;;;9.70;6.20;;;;;;;6.58;73.22;94371.25;5038753;28;20027;-73
2023/04/21 02:50:02;;;;;;;9.05;5.90;;;;;;;6.64;72.96;94365.63;5042640;28;20032;-73
2023/04/21 02:52:27;;;;;;;8.18;5.55;;;;;;;6.72;72.29;94363.28;5065090;28;20036;-73
2023/04/21 02:54:52;;;;;;;8.40;5.90;;;;;;;6.75;72.18;94364.81;5074145;28;20024;-73
2023/04/21 02:57:18;;;;;;;8.40;5.38;;;;;;;6.70;71.79;94360.81;5052996;28;20032;-73
2023/04/21 02:59:43;;;;;;;7.88;6.10;;;;;;;6.76;72.30;94369.03;5046708;28;20032;-73
2023/04/21 03:02:09;;;;;;;6.90;5.63;;;;;;;6.83;71.94;94367.66;5072359;28;20055;-73
2023/04/21 03:04:35;;;;;;;7.88;5.95;;;;;;;6.86;72.07;94370.00;5031114;28;20395;-73
2023/04/21 03:07:00;;;;;;;10.05;6.53;;;;;;;6.84;71.85;94369.28;5055470;28;20033;-73
2023/04/21 03:09:25;;;;;;;12.15;9.25;;;;;;;6.81;70.90;94372.94;5056903;28;20055;-73
2023/04/21 03:11:51;;;;;;;13.23;9.82;;;;;;;6.84;71.14;94371.88;5034510;28;20037;-74
2023/04/21 03:14:16;;;;;;;15.70;10.48;;;;;;;6.83;71.18;94370.25;5071312;28;20035;-73
2023/04/21 03:16:42;;;;;;;12.10;9.70;;;;;;;6.75;71.37;94352.72;5058250;28;20051;-73
2023/04/21 03:19:07;;;;;;;14.40;10.05;;;;;;;6.88;71.23;94373.28;5083132;28;20024;-73
2023/04/21 03:21:35;;;;;;;15.60;10.45;;;;;;;6.84;71.16;94364.13;5045470;28;20032;-74
2023/04/21 03:24:01;;;;;;;12.57;9.68;;;;;;;6.78;71.13;94367.19;5053602;28;20521;-73
2023/04/21 03:26:26;;;;;;;13.32;9.73;;;;;;;6.85;71.36;94379.53;5063451;28;20028;-73
2023/04/21 03:28:52;;;;;;;12.23;9.85;;;;;;;6.89;71.65;94374.94;5069274;28;20036;-73
2023/04/21 03:31:17;;;;;;;12.07;9.82;;;;;;;6.90;70.74;94381.72;5044730;28;20055;-73
2023/04/21 03:33:43;;;;;;;12.38;10.48;;;;;;;6.66;71.22;94359.41;5085260;28;20478;-73
2023/04/21 03:36:08;;;;;;;15.63;11.57;;;;;;;6.66;71.25;94348.28;5058270;28;20041;-73
2023/04/21 03:38:34;;;;;;;14.45;12.15;;;;;;;6.79;71.57;94379.13;5053568;28;20222;-74
2023/04/21 03:40:59;;;;;;;13.77;10.90;;;;;;;6.86;72.04;94385.50;5038066;28;20518;-74
2023/04/21 03:43:25;;;;;;;13.52;9.10;;;;;;;6.83;72.23;94375.41;5055743;28;20410;-73
2023/04/21 03:45:50;;;;;;;11.38;8.60;;;;;;;7.01;71.22;94384.34;5053473;28;20020;-73
2023/04/21 03:48:15;;;;;;;11.00;8.38;;;;;;;7.10;71.50;94377.66;5053412;28;20035;-73
2023/04/21 03:50:41;;;;;;;15.38;10.07;;;;;;;7.15;71.75;94397.03;5036975;28;20032;-73
2023/04/21 03:53:06;;;;;;;13.90;11.10;;;;;;;7.21;71.73;94389.75;5062467;28;20036;-73
2023/04/21 03:55:32;;;;;;;18.55;12.05;;;;;;;7.19;71.87;94389.88;5073126;28;20031;-74
2023/04/21 03:57:57;;;;;;;13.25;10.13;;;;;;;7.20;71.84;94395.88;5040049;28;20062;-73
2023/04/21 04:00:23;;;;;;;11.85;9.00;;;;;;;7.31;71.07;94390.69;5073239;28;20032;-73
2023/04/21 04:02:48;;;;;;;14.43;9.65;;;;;;;7.30;70.33;94383.88;5079643;28;20055;-73
2023/04/21 04:05:14;;;;;;;13.57;8.98;;;;;;;7.44;70.55;94399.16;5036547;28;20033;-73
2023/04/21 04:07:39;;;;;;;11.25;8.07;;;;;;;7.37;70.31;94395.38;5071469;28;20082;-73
2023/04/21 04:10:05;;;;;;;12.35;8.88;;;;;;;7.39;70.89;94406.44;5053038;28;20086;-73
2023/04/21 04:12:30;;;;;;;12.32;10.02;;;;;;;7.43;70.41;94404.44;5087605;28;20064;-73
2023/04/21 04:14:56;;;;;;;11.57;9.20;;;;;;;7.54;70.24;94407.81;5049196;28;20035;-73
2023/04/21 04:17:21;;;;;;;12.38;9.68;;;;;;;7.70;69.43;94414.41;5073145;28;20043;-74
2023/04/21 04:19:47;;;;;;;17.00;12.80;;;;;;;7.52;69.65;94414.06;5035240;28;20037;-73
2023/04/21 04:22:12;;;;;;;16.48;12.57;;;;;;;7.60;69.69;94420.31;5069087;28;20032;-73
2023/04/21 04:24:38;;;;;;;17.73;13.60;;;;;;;7.56;69.93;94415.47;5047766;28;20551;-73
2023/04/21 04:27:04;;;;;;;13.77;11.18;;;;;;;7.74;69.59;94420.97;5067777;28;20493;-75
2023/04/21 04:29:30;;;;;;;15.05;12.07;;;;;;;7.90;69.54;94424.00;5060349;28;20086;-73
2023/04/21 04:31:56;;;;;;;15.45;12.52;;;;;;;8.46;68.41;94423.06;5046777;28;20029;-73
2023/04/21 04:34:22;;;;;;;14.43;11.30;;;;;;;8.84;67.31;94425.13;5048362;28;20039;-74
2023/04/21 04:36:49;;;;;;;16.75;11.50;;;;;;;9.12;65.72;94420.25;5042147;28;20500;-74
2023/04/21 04:39:24;;;;;;;14.43;10.30;;;;;;;9.99;63.50;94410.22;5073514;28;20081;-76
2023/04/21 04:41:51;;;;;;;12.38;9.18;;;;;;;10.09;63.03;94428.44;5065625;28;20115;-75
2023/04/21 04:44:17;;;;;;;11.05;9.05;;;;;;;10.76;60.83;94408.69;5064948;28;20037;-75
2023/04/21 04:46:44;;;;;;;10.65;9.13;;;;;;;11.57;59.24;94427.28;5047302;28;20484;-75
2023/04/21 04:49:09;;;;;;;14.00;11.57;;;;;;;10.91;59.76;94417.69;5054167;28;20040;-75
2023/04/21 04:51:35;;;;;;;13.63;10.30;;;;;;;10.62;60.06;94425.53;5079796;28;20487;-75
2023/04/21 04:54:00;;;;;;;12.32;9.30;;;;;;;10.43;61.73;94433.28;5044172;28;20409;-75
2023/04/21 04:56:26;;;;;;;13.15;10.20;;;;;;;10.31;62.50;94434.34;5078636;28;20028;-76
2023/04/21 04:58:51;;;;;;;13.25;10.80;;;;;;;10.31;62.23;94418.78;5051263;28;20050;-75
2023/04/21 05:01:17;;;;;;;14.95;12.75;;;;;;;10.24;61.62;94421.88;5074209;28;20113;-75
2023/04/21 05:03:43;;;;;;;16.10;12.35;;;;;;;10.40;61.23;94436.16;5048994;28;20025;-75
2023/04/21 05:06:08;;;;;;;19.55;12.65;;;;;;;11.30;58.28;94441.03;5047415;28;20044;-75
2023/04/21 05:08:34;;;;;;;13.68;11.50;;;;;;;12.51;55.03;94421.06;5075580;28;20103;-75
2023/04/21 05:11:00;;;;;;;15.75;11.50;;;;;;;12.40;56.00;94429.91;5057029;28;20123;-75
2023/04/21 05:13:25;;;;;;;13.10;10.52;;;;;;;11.96;55.44;94432.34;5059891;28;20535;-76
2023/04/21 05:16:03;;;;;;;13.65;11.18;;;;;;;11.74;57.24;94437.91;5062276;28;20440;-75
2023/04/21 05:18:28;;;;;;;17.13;11.38;;;;;;;11.53;57.44;94443.28;5060899;28;20020;-75
2023/04/21 05:20:54;;;;;;;18.60;13.77;;;;;;;11.72;57.44;94437.22;5087380;28;20020;-75
2023/04/21 05:23:19;;;;;;;17.65;12.68;;;;;;;11.72;57.43;94439.81;5070251;28;20135;-75
2023/04/21 05:25:45;;;;;;;19.40;12.77;;;;;;;11.81;56.56;94431.13;5057576;28;20040;-75
2023/04/21 05:28:11;;;;;;;16.92;11.60;;;;;;;11.75;56.02;94439.53;5089679;28;20028;-75
2023/04/21 05:30:36;;;;;;;14.73;11.20;;;;;;;11.84;55.87;94436.91;5057780;28;20028;-75
2023/04/21 05:33:02;;;;;;;14.85;11.10;;;;;;;11.76;56.36;94420.38;5085671;28;20036;-75
2023/04/21 05:35:29;;;;;;;14.20;10.32;;;;;;;11.30;56.71;94433.22;5071671;28;20103;-76
2023/04/21 05:37:55;;;;;;;15.32;11.68;;;;;;;11.30;57.77;94435.81;5037847;28;20114;-75
2023/04/21 05:40:21;;;;;;;18.48;11.80;;;;;;;11.35;57.39;94422.41;5063235;28;20029;-75
2023/04/21 05:42:46;;;;;;;17.20;11.80;;;;;;;11.25;57.33;94442.41;5061108;28;20441;-76
2023/04/21 05:45:11;;;;;;;34.25;24.02;;;;;;;11.21;57.49;94423.69;5069059;28;20073;-76
2023/04/21 05:47:40;;;;;;;25.95;18.35;;;;;;;11.36;58.15;94443.06;5059502;28;20025;-75
2023/04/21 05:50:06;;;;;;;26.63;18.58;;;;;;;11.47;57.97;94418.66;5072696;28;20043;-76
2023/04/21 05:52:31;;;;;;;14.70;11.38;;;;;;;11.53;56.59;94420.72;5071002;28;20032;-77
2023/04/21 05:54:58;;;;;;;16.50;11.60;;;;;;;11.56;56.46;94430.84;5056406;28;20039;-76
2023/04/21 05:57:24;;;;;;;12.90;11.07;;;;;;;11.62;56.43;94425.06;5074721;28;20042;-76
2023/04/21 05:59:49;;;;;;;16.15;10.88;;;;;;;11.60;56.36;94434.78;5066875;28;20032;-76
2023/04/21 06:02:15;;;;;;;23.63;11.18;;;;;;;11.91;56.16;94439.75;5090128;28;20137;-76
2023/04/21 06:04:40;;;;;;;14.82;10.30;;;;;;;12.12;56.39;94426.50;5057217;28;20520;-76
2023/04/21 06:07:09;;;;;;;13.10;9.38;;;;;;;11.97;55.76;94431.38;5071978;28;20048;-76
2023/04/21 06:09:35;;;;;;;15.32;10.45;;;;;;;12.02;55.56;94418.75;5085862;28;20063;-76
2023/04/21 06:12:01;;;;;;;13.20;10.18;;;;;;;12.21;55.63;94427.41;5055137;28;20036;-76
2023/04/21 06:14:27;;;;;;;18.35;11.85;;;;;;;12.41;55.37;94421.13;5062379;28;20031;-76
2023/04/21 06:16:52;;;;;;;17.55;10.80;;;;;;;12.29;55.50;94427.50;5093507;28;20043;-76
2023/04/21 06:19:18;;;;;;;12.80;9.93;;;;;;;12.51;54.94;94421.88;5047478;28;20493;-76
2023/04/21 06:21:43;;;;;;;13.85;10.35;;;;;;;12.73;54.54;94422.38;5055379;28;20037;-76
2023/04/21 06:24:08;;;;;;;15.50;10.52;;;;;;;13.01;54.56;94422.28;5079736;28;20032;-76
2023/04/21 06:26:34;;;;;;;12.40;9.30;;;;;;;13.39;53.03;94429.75;5070514;28;20029;-76
2023/04/21 06:28:59;;;;;;;10.07;7.80;;;;;;;13.37;52.60;94416.06;5074092;28;20057;-76
2023/04/21 06:31:25;;;;;;;10.52;7.60;;;;;;;13.73;50.84;94426.34;5090939;28;20036;-76
2023/04/21 06:33:51;;;;;;;9.13;7.43;;;;;;;13.88;50.58;94423.19;5092668;28;20020;-76
2023/04/21 06:36:16;;;;;;;10.68;8.30;;;;;;;13.86;50.73;94408.47;5086340;28;20059;-76
2023/04/21 06:38:42;;;;;;;9.10;7.20;;;;;;;14.06;50.11;94423.91;5052655;28;20036;-76
2023/04/21 06:41:08;;;;;;;10.57;7.85;;;;;;;14.07;49.51;94417.72;5056833;28;20032;-75
2023/04/21 06:43:33;;;;;;;8.93;7.32;;;;;;;14.08;49.32;94412.31;5035367;28;20032;-76
2023/04/21 06:45:59;;;;;;;10.40;7.68;;;;;;;14.20;49.20;94414.66;5056396;28;20087;-76
2023/04/21 06:48:25;;;;;;;11.05;7.82;;;;;;;14.24;49.47;94414.19;5090078;28;20024;-76
2023/04/21 06:50:51;;;;;;;9.85;7.32;;;;;;;14.38;48.52;94398.88;5038416;28;20059;-75
2023/04/21 06:53:20;;;;;;;9.23;7.18;;;;;;;14.56;48.75;94399.56;5063099;28;20035;-76
2023/04/21 06:55:46;;;;;;;8.65;7.00;;;;;;;14.85;48.40;94409.56;5075493;28;20028;-76
2023/04/21 06:58:11;;;;;;;10.25;7.70;;;;;;;14.65;47.74;94408.22;5060497;28;20073;-76
2023/04/21 07:00:37;;;;;;;9.50;7.40;;;;;;;14.83;48.47;94408.91;5070652;28;20024;-76
2023/04/21 07:03:02;;;;;;;9.30;7.43;;;;;;;15.01;47.70;94411.34;5107540;28;20063;-76
2023/04/21 07:05:28;;;;;;;9.02;7.22;;;;;;;15.13;47.94;94412.69;5083855;28;20024;-76
2023/04/21 07:07:58;;;;;;;9.48;6.88;;;;;;;15.31;46.82;94409.06;5054198;28;20040;-76
2023/04/21 07:10:24;;;;;;;9.27;7.47;;;;;;;15.48;46.86;94407.22;5075733;28;20020;-77
2023/04/21 07:12:49;;;;;;;10.10;7.10;;;;;;;15.76;46.39;94412.91;5073650;28;20077;-76
2023/04/21 07:15:16;;;;;;;9.40;7.68;;;;;;;15.79;45.71;94409.97;5072589;28;20036;-76
2023/04/21 07:17:41;;;;;;;7.88;6.35;;;;;;;16.08;45.62;94415.44;5091624;28;20036;-76
2023/04/21 07:20:07;;;;;;;9.70;7.35;;;;;;;15.94;44.49;94405.66;5063743;28;20039;-76
2023/04/21 07:22:34;;;;;;;12.68;9.32;;;;;;;15.87;44.87;94415.16;5056771;28;20521;-76
2023/04/21 07:25:01;;;;;;;8.88;7.10;;;;;;;15.79;44.57;94413.38;5060910;28;20025;-77
2023/04/21 07:27:26;;;;;;;16.23;9.95;;;;;;;15.84;45.43;94408.47;5045563;28;20128;-78
2023/04/21 07:29:52;;;;;;;10.30;8.18;;;;;;;16.24;44.60;94411.94;5053614;28;20043;-75
2023/04/21 07:32:17;;;;;;;15.02;9.23;;;;;;;16.41;44.42;94410.03;5080629;28;20032;-73
2023/04/21 07:34:45;;;;;;;12.43;9.50;;;;;;;16.43;44.08;94410.66;5090307;28;20077;-75
2023/04/21 07:37:11;;;;;;;10.18;7.55;;;;;;;16.46;44.25;94394.59;5086483;28;20036;-74
2023/04/21 07:39:36;;;;;;;16.70;9.48;;;;;;;16.42;43.61;94402.97;5054933;28;20487;-73
2023/04/21 07:42:02;;;;;;;14.43;8.85;;;;;;;16.52;43.57;94396.53;5091441;28;20104;-73
2023/04/21 07:44:28;;;;;;;15.00;9.25;;;;;;;16.39;43.73;94388.41;5097554;28;20031;-74
2023/04/21 07:46:53;;;;;;;8.20;7.00;;;;;;;16.34;43.60;94416.94;5091219;28;20379;-74
2023/04/21 07:49:19;;;;;;;14.23;9.23;;;;;;;16.19;43.38;94408.19;5088121;28;20028;-74
2023/04/21 07:51:45;;;;;;;13.55;9.63;;;;;;;16.02;43.31;94412.69;5073094;28;20047;-73
2023/04/21 07:54:10;;;;;;;9.80;6.80;;;;;;;15.81;44.21;94411.44;5072579;28;20099;-73
2023/04/21 07:56:35;;;;;;;13.15;8.52;;;;;;;15.66;44.83;94413.09;5089820;28;20028;-73
2023/04/21 07:59:01;;;;;;;13.05;8.25;;;;;;;15.83;45.05;94413.88;5086368;28;20020;-73
2023/04/21 08:01:26;;;;;;;12.25;6.90;;;;;;;15.96;44.42;94408.91;5085922;28;20052;-73
2023/04/21 08:03:52;;;;;;;9.15;6.38;;;;;;;16.02;44.64;94407.44;5096611;28;20036;-73
2023/04/21 08:06:17;;;;;;;12.88;8.60;;;;;;;15.93;44.44;94413.69;5075459;28;20036;-75
2023/04/21 08:08:43;;;;;;;21.55;10.48;;;;;;;15.82;44.23;94422.72;5069059;28;20020;-73
2023/04/21 08:11:08;;;;;;;13.45;8.60;;;;;;;15.32;44.68;94415.91;5088867;28;20043;-73
2023/04/21 08:13:34;;;;;;;12.50;7.53;;;;;;;15.45;45.01;94402.34;5068114;28;20029;-73
2023/04/21 08:16:00;;;;;;;10.13;6.72;;;;;;;15.50;45.32;94413.13;5081622;28;20470;-73
2023/04/21 08:18:25;;;;;;;9.60;6.65;;;;;;;15.67;44.71;94398.19;5089071;28;20045;-75
2023/04/21 08:20:51;;;;;;;8.77;6.20;;;;;;;15.78;44.66;94403.91;5053742;28;20028;-75
2023/04/21 08:23:17;;;;;;;13.00;7.97;;;;;;;15.88;44.60;94406.34;5055181;28;20066;-75
2023/04/21 08:25:42;;;;;;;8.80;6.85;;;;;;;16.05;44.15;94407.91;5055135;28;20020;-74
2023/04/21 08:28:07;;;;;;;12.80;8.00;;;;;;;16.02;43.91;94383.88;5055443;28;20513;-74
2023/04/21 08:30:33;;;;;;;9.02;7.30;;;;;;;16.14;43.77;94402.63;5069749;28;20417;-76
2023/04/21 08:32:58;;;;;;;8.18;6.22;;;;;;;16.19;43.70;94395.09;5038510;28;20391;-76
2023/04/21 08:35:24;;;;;;;9.68;6.35;;;;;;;16.23;44.52;94391.94;5069359;28;20105;-76
2023/04/21 08:37:49;;;;;;;13.68;9.43;;;;;;;16.39;44.27;94405.94;5054751;28;20093;-76
2023/04/21 08:40:15;;;;;;;8.45;6.28;;;;;;;16.23;42.82;94378.03;5054357;28;20032;-76
2023/04/21 08:42:41;;;;;;;9.00;6.93;;;;;;;16.37;43.15;94394.81;5053274;28;20031;-76
2023/04/21 08:45:07;;;;;;;7.55;6.45;;;;;;;16.42;42.82;94393.31;5053997;28;20066;-76
2023/04/21 08:47:32;;;;;;;8.02;6.13;;;;;;;16.39;42.98;94380.56;5088545;28;20020;-77
2023/04/21 08:49:58;;;;;;;9.65;6.05;;;;;;;16.40;43.51;94390.03;5052728;28;20020;-77
2023/04/21 08:52:23;;;;;;;9.15;5.80;;;;;;;16.47;43.26;94391.00;5050925;28;20032;-76
2023/04/21 08:54:51;;;;;;;6.72;5.53;;;;;;;16.61;43.04;94393.88;5051174;28;20028;-76
2023/04/21 08:57:17;;;;;;;9.88;6.43;;;;;;;16.52;43.48;94349.34;5076477;28;20406;-76
2023/04/21 08:59:43;;;;;;;8.88;5.68;;;;;;;16.94;42.26;94383.97;5049433;28;20113;-77
2023/04/21 09:02:16;;;;;;;7.25;5.57;;;;;;;16.81;41.00;94360.97;5081135;28;20059;-76
2023/04/21 09:04:51;;;;;;;7.22;5.47;;;;;;;16.65;41.88;94372.34;5059881;28;20482;-76
2023/04/21 09:07:30;;;;;;;8.60;5.60;;;;;;;16.67;42.01;94359.88;5061018;28;20036;-76
2023/04/21 09:09:55;;;;;;;9.25;5.63;;;;;;;16.69;42.33;94344.78;5065567;28;20576;-75
2023/04/21 09:12:21;;;;;;;9.48;6.53;;;;;;;16.84;42.08;94350.09;5052857;28;20032;-76
2023/04/21 09:14:46;;;;;;;7.78;5.95;;;;;;;16.93;40.91;94341.16;5091832;28;20032;-76
2023/04/21 09:17:14;;;;;;;12.38;7.18;;;;;;;17.34;42.23;94361.78;5061962;28;20024;-76
2023/04/21 09:19:40;;;;;;;10.18;7.00;;;;;;;17.41;41.48;94361.88;5056806;28;20035;-76
2023/04/21 09:22:05;;;;;;;13.07;8.52;;;;;;;17.30;40.67;94347.41;5093152;28;20047;-76
2023/04/21 09:24:31;;;;;;;10.18;5.95;;;;;;;17.35;40.40;94342.41;5075997;28;20520;-76
2023/04/21 09:26:56;;;;;;;10.35;6.45;;;;;;;17.61;41.24;94362.19;5076039;28;20032;-76
2023/04/21 09:29:22;;;;;;;8.18;5.88;;;;;;;17.88;40.62;94349.41;5059350;28;20517;-76
2023/04/21 09:31:49;;;;;;;9.38;5.65;;;;;;;18.05;39.01;94351.69;5062567;28;20033;-76
2023/04/21 09:34:24;;;;;;;8.48;6.07;;;;;;;18.16;38.74;94352.19;5075071;28;20024;-76
2023/04/21 09:37:02;;;;;;;7.88;5.15;;;;;;;18.13;37.50;94342.84;5060268;28;20036;-77
2023/04/21 09:39:31;;;;;;;9.93;6.00;;;;;;;18.24;38.29;94349.44;5104245;28;20099;-77
2023/04/21 09:41:57;;;;;;;8.30;5.20;;;;;;;18.15;37.86;94346.13;5059614;28;20036;-76
2023/04/21 09:44:24;;;;;;;6.78;4.70;;;;;;;18.01;37.64;94337.25;5050417;28;20414;-76
2023/04/21 09:46:50;;;;;;;5.65;4.82;;;;;;;17.95;38.41;94339.81;5062785;28;20039;-76
2023/04/21 09:49:16;;;;;;;7.75;4.95;;;;;;;17.99;38.53;94339.25;5035270;28;20473;-76
2023/04/21 09:51:41;;;;;;;7.63;5.60;;;;;;;18.02;38.94;94338.88;5057419;28;20089;-76
2023/04/21 09:54:17;;;;;;;8.07;5.85;;;;;;;18.08;38.75;94347.88;5048504;28;20039;-76
2023/04/21 09:56:43;;;;;;;10.07;5.30;;;;;;;17.99;38.71;94338.44;5075677;28;20032;-76
2023/04/21 09:59:11;;;;;;;8.15;5.72;;;;;;;17.96;38.58;94336.19;5058749;28;20035;-76
2023/04/21 10:01:37;;;;;;;7.80;4.80;;;;;;;17.97;37.78;94333.38;5042540;28;20056;-76
2023/04/21 10:04:03;;;;;;;9.15;5.00;;;;;;;17.96;37.16;94331.75;5092233;28;20024;-76
2023/04/21 10:06:28;;;;;;;6.32;4.18;;;;;;;17.95;37.08;94321.44;5089868;28;20043;-76
2023/04/21 10:08:55;;;;;;;4.97;4.45;;;;;;;17.88;37.28;94317.91;5109193;28;20035;-76
2023/04/21 10:11:21;;;;;;;5.53;4.50;;;;;;;17.96;37.45;94315.16;5082155;28;20118;-76
2023/04/21 10:13:46;;;;;;;8.32;4.32;;;;;;;17.96;38.65;94323.03;5074588;28;20472;-76
2023/04/21 10:16:12;;;;;;;7.15;4.50;;;;;;;17.90;38.33;94303.56;5074592;28;20382;-76
2023/04/21 10:18:41;;;;;;;6.20;4.43;;;;;;;17.98;37.67;94311.34;5057215;28;20032;-76
2023/04/21 10:21:08;;;;;;;7.10;5.05;;;;;;;17.92;37.66;94327.88;5064586;28;20024;-76
2023/04/21 10:23:47;;;;;;;6.85;4.70;;;;;;;17.59;37.41;94314.28;5073442;28;20035;-76
2023/04/21 10:26:14;;;;;;;5.53;4.25;;;;;;;17.41;37.26;94304.97;5080198;28;20036;-77
2023/04/21 10:28:40;;;;;;;5.47;4.65;;;;;;;17.37;37.50;94319.44;5046878;28;20561;-75
2023/04/21 10:31:18;;;;;;;8.85;4.43;;;;;;;17.44;37.10;94314.28;5064050;28;20047;-73
2023/04/21 10:34:11;;;;;;;6.30;4.40;;;;;;;17.42;38.10;94311.84;5092180;28;20059;-74
2023/04/21 10:36:53;;;;;;;8.30;4.88;;;;;;;17.59;38.05;94314.28;5086293;28;20067;-76
2023/04/21 10:39:43;;;;;;;5.03;4.32;;;;;;;17.60;38.06;94311.44;5058517;28;20421;-76
2023/04/21 10:42:11;;;;;;;7.22;5.75;;;;;;;17.58;39.73;94323.16;5075892;28;20063;-75
2023/04/21 10:44:40;;;;;;;7.50;5.50;;;;;;;17.45;40.48;94310.66;5073106;28;20028;-75
2023/04/21 10:47:06;;;;;;;11.65;6.00;;;;;;;17.31;40.98;94321.97;5073050;28;20027;-74
2023/04/21 10:49:31;;;;;;;8.35;5.60;;;;;;;17.39;40.97;94317.44;5073708;28;20036;-74
2023/04/21 10:52:06;;;;;;;7.25;5.25;;;;;;;17.48;40.41;94317.34;5060955;28;20036;-75
2023/04/21 10:54:46;;;;;;;11.07;6.68;;;;;;;17.59;41.05;94314.28;5079611;28;20594;-75
2023/04/21 10:57:25;;;;;;;8.43;6.78;;;;;;;17.53;40.88;94310.56;5078293;28;20118;-76
2023/04/21 10:59:51;;;;;;;12.38;6.00;;;;;;;17.67;40.66;94316.00;5054470;28;20097;-75
2023/04/21 11:02:17;;;;;;;7.13;5.80;;;;;;;17.43;40.63;94318.69;5070307;28;20434;-76
2023/04/21 11:04:48;;;;;;;6.82;5.70;;;;;;;17.55;40.66;94326.13;5057373;28;20027;-76
2023/04/21 11:07:17;;;;;;;6.43;5.43;;;;;;;17.55;40.56;94315.63;5059933;28;20034;-76
2023/04/21 11:09:45;;;;;;;7.80;5.28;;;;;;;17.67;40.30;94313.38;5084686;28;20099;-76
2023/04/21 11:12:13;;;;;;;7.90;4.70;;;;;;;17.63;39.10;94297.97;5068198;28;20055;-76
2023/04/21 11:14:39;;;;;;;8.13;4.93;;;;;;;17.68;39.48;94307.13;5054739;28;20074;-76
2023/04/21 11:17:09;;;;;;;6.15;5.50;;;;;;;17.60;39.88;94315.91;5038027;28;20672;-76
2023/04/21 11:19:35;;;;;;;8.57;5.57;;;;;;;17.31;40.09;94293.91;5068994;28;20028;-76
2023/04/21 11:22:00;;;;;;;9.23;5.38;;;;;;;17.29;42.55;94309.00;5086364;28;20320;-76
2023/04/21 11:24:26;;;;;;;7.70;5.47;;;;;;;17.27;41.06;94311.00;5078764;28;20493;-76
2023/04/21 11:26:51;;;;;;;5.43;4.85;;;;;;;17.36;41.81;94309.94;5072363;28;20434;-76
2023/04/21 11:29:17;;;;;;;8.65;4.57;;;;;;;17.25;39.68;94305.13;5087388;28;20028;-76